createdAt,value
2019-04-25T00:01:09.462Z,77.80
2019-04-25T00:03:40.809Z,79.70
2019-04-25T00:06:12.161Z,81.90
2019-04-25T00:08:42.723Z,82.50
2019-04-25T00:11:12.347Z,83.00
2019-04-25T00:13:41.943Z,82.90
2019-04-25T00:16:11.772Z,83.20
2019-04-25T00:18:42.757Z,83.10
2019-04-25T00:21:14.160Z,82.30
2019-04-25T00:23:44.988Z,81.50
2019-04-25T00:26:28.748Z,80.60
2019-04-25T00:28:57.649Z,80.20
2019-04-25T00:31:26.640Z,80.50
2019-04-25T00:33:55.532Z,80.00
2019-04-25T00:36:24.543Z,79.90
2019-04-25T00:38:53.547Z,80.90
2019-04-25T00:41:24.049Z,82.40
2019-04-25T00:43:52.942Z,83.50
2019-04-25T00:46:22.545Z,84.10
2019-04-25T00:48:52.589Z,83.70
2019-04-25T00:51:21.854Z,83.70
2019-04-25T00:53:53.615Z,84.20
2019-04-25T00:56:22.394Z,84.30
2019-04-25T00:58:55.633Z,84.30
2019-04-25T01:01:26.122Z,84.20
2019-04-25T01:03:55.106Z,83.80
2019-04-25T01:06:24.022Z,83.80
2019-04-25T01:08:54.587Z,84.30
2019-04-25T01:11:23.508Z,85.20
2019-04-25T01:13:53.321Z,83.60
2019-04-25T01:16:22.344Z,83.10
2019-04-25T01:18:51.236Z,83.80
2019-04-25T01:21:20.289Z,84.20
2019-04-25T01:23:49.397Z,84.90
2019-04-25T01:26:18.445Z,85.90
2019-04-25T01:28:47.656Z,85.90
2019-04-25T01:31:18.291Z,86.00
2019-04-25T01:33:47.219Z,85.50
2019-04-25T01:36:18.038Z,86.50
2019-04-25T01:38:50.891Z,86.00
2019-04-25T01:41:21.508Z,85.40
2019-04-25T01:44:04.577Z,84.90
2019-04-25T01:46:34.223Z,84.50
2019-04-25T01:49:04.331Z,83.80
2019-04-25T01:51:33.974Z,82.90
2019-04-25T01:54:04.107Z,83.50
2019-04-25T01:56:33.272Z,83.30
2019-04-25T01:59:03.904Z,84.00
2019-04-25T02:01:34.275Z,83.80
2019-04-25T02:04:03.597Z,84.20
2019-04-25T02:06:33.537Z,84.20
2019-04-25T02:09:04.218Z,84.30
2019-04-25T02:11:35.153Z,83.40
2019-04-25T02:14:05.211Z,83.50
2019-04-25T02:16:35.709Z,83.20
2019-04-25T02:19:04.959Z,83.60
2019-04-25T02:21:33.992Z,84.40
2019-04-25T02:24:04.376Z,85.10
2019-04-25T02:26:34.071Z,84.50
2019-04-25T02:29:04.642Z,83.90
2019-04-25T02:31:34.755Z,84.70
2019-04-25T02:34:08.239Z,85.70
2019-04-25T02:36:34.858Z,85.30
2019-04-25T02:39:09.004Z,85.40
2019-04-25T02:41:37.556Z,85.80
2019-04-25T02:44:10.019Z,87.00
2019-04-25T02:46:41.574Z,86.20
2019-04-25T02:49:36.927Z,85.60
2019-04-25T02:52:06.934Z,85.70
2019-04-25T02:54:34.339Z,85.30
2019-04-25T02:57:06.576Z,85.00
2019-04-25T02:59:36.651Z,85.00
2019-04-25T03:02:07.016Z,85.30
2019-04-25T03:04:35.832Z,85.80
2019-04-25T03:07:08.109Z,86.00
2019-04-25T03:09:35.452Z,85.80
2019-04-25T03:12:06.506Z,85.50
2019-04-25T03:14:35.423Z,84.70
2019-04-25T03:17:07.845Z,85.30
2019-04-25T03:19:54.679Z,86.10
2019-04-25T03:22:26.700Z,86.60
2019-04-25T03:24:55.809Z,86.00
2019-04-25T03:27:25.323Z,85.80
2019-04-25T03:29:54.361Z,85.70
2019-04-25T03:32:27.819Z,86.40
2019-04-25T03:34:54.895Z,86.90
2019-04-25T03:37:23.933Z,87.30
2019-04-25T03:39:53.549Z,87.60
2019-04-25T03:42:23.976Z,87.60
2019-04-25T03:44:53.794Z,87.60
2019-04-25T03:47:23.578Z,88.00
2019-04-25T03:49:55.426Z,87.70
2019-04-25T03:52:24.473Z,88.10
2019-04-25T03:54:53.532Z,88.00
2019-04-25T03:57:23.261Z,88.30
2019-04-25T03:59:53.647Z,88.20
2019-04-25T04:02:23.527Z,88.00
2019-04-25T04:04:53.748Z,88.00
2019-04-25T04:07:23.780Z,88.30
2019-04-25T04:09:53.293Z,90.00
2019-04-25T04:12:24.308Z,90.50
2019-04-25T04:14:53.755Z,90.70
2019-04-25T04:17:29.977Z,91.00
2019-04-25T04:20:00.557Z,90.90
2019-04-25T04:22:31.043Z,91.00
2019-04-25T04:25:01.845Z,90.60
2019-04-25T04:27:30.756Z,90.40
2019-04-25T04:29:59.715Z,90.40
2019-04-25T04:32:28.652Z,90.30
2019-04-25T04:34:59.077Z,90.20
2019-04-25T04:37:29.171Z,90.10
2019-04-25T04:39:58.787Z,89.10
2019-04-25T04:42:27.749Z,88.50
2019-04-25T04:44:56.778Z,88.60
2019-04-25T04:47:25.722Z,89.20
2019-04-25T04:49:54.735Z,88.50
2019-04-25T04:52:25.719Z,88.30
2019-04-25T04:55:05.866Z,88.40
2019-04-25T04:57:32.044Z,88.30
2019-04-25T04:59:55.392Z,88.00
2019-04-25T05:02:29.870Z,87.60
2019-04-25T05:05:06.197Z,87.00
2019-04-25T05:07:54.699Z,86.90
2019-04-25T05:10:25.109Z,87.70
2019-04-25T05:12:54.115Z,87.70
2019-04-25T05:15:24.599Z,87.40
2019-04-25T05:17:55.253Z,87.70
2019-04-25T05:20:24.386Z,86.80
2019-04-25T05:22:55.195Z,86.50
2019-04-25T05:25:24.767Z,86.40
2019-04-25T05:28:00.700Z,85.80
2019-04-25T05:30:26.649Z,85.50
2019-04-25T05:32:55.726Z,84.30
2019-04-25T05:35:25.393Z,82.90
2019-04-25T05:37:54.479Z,82.60
2019-04-25T05:40:25.473Z,83.00
2019-04-25T05:43:05.204Z,82.10
2019-04-25T05:45:34.644Z,82.10
2019-04-25T05:48:05.689Z,82.20
2019-04-25T05:50:34.271Z,81.70
2019-04-25T05:53:05.905Z,81.80
2019-04-25T05:55:34.930Z,82.30
2019-04-25T05:58:06.698Z,82.30
2019-04-25T06:00:35.682Z,81.30
2019-04-25T06:03:05.706Z,80.60
2019-04-25T06:05:34.641Z,80.10
2019-04-25T06:08:06.043Z,80.00
2019-04-25T06:10:41.932Z,80.00
2019-04-25T06:13:15.090Z,81.60
2019-04-25T06:15:45.786Z,82.40
2019-04-25T06:18:19.887Z,82.70
2019-04-25T06:20:49.733Z,81.70
2019-04-25T06:23:20.553Z,81.50
2019-04-25T06:25:49.605Z,81.00
2019-04-25T06:28:23.670Z,79.70
2019-04-25T06:30:53.993Z,81.40
2019-04-25T06:33:24.673Z,81.90
2019-04-25T06:35:56.923Z,82.10
2019-04-25T06:38:28.353Z,83.30
2019-04-25T06:40:57.438Z,83.60
2019-04-25T06:43:28.012Z,83.80
2019-04-25T06:46:16.452Z,83.80
2019-04-25T06:49:03.540Z,83.40
2019-04-25T06:51:51.294Z,83.00
2019-04-25T06:54:21.006Z,82.20
2019-04-25T06:56:51.000Z,82.50
2019-04-25T06:59:19.913Z,80.60
2019-04-25T07:01:48.924Z,80.70
2019-04-25T07:04:17.803Z,79.90
2019-04-25T07:06:49.471Z,80.50
2019-04-25T07:09:18.568Z,81.10
2019-04-25T07:11:48.261Z,79.80
2019-04-25T07:14:17.730Z,80.20
2019-04-25T07:16:46.680Z,79.30
2019-04-25T07:19:17.563Z,79.10
2019-04-25T07:21:46.136Z,79.70
2019-04-25T07:24:17.501Z,78.40
2019-04-25T07:26:54.014Z,79.30
2019-04-25T07:29:33.756Z,80.20
2019-04-25T07:32:21.232Z,79.90
2019-04-25T07:34:50.185Z,80.40
2019-04-25T07:37:21.022Z,80.60
2019-04-25T07:39:49.643Z,80.00
2019-04-25T07:42:18.504Z,79.90
2019-04-25T07:44:52.682Z,80.10
2019-04-25T07:47:19.003Z,80.80
2019-04-25T07:49:47.945Z,80.50
2019-04-25T07:52:16.863Z,79.80
2019-04-25T07:54:46.203Z,79.80
2019-04-25T07:57:15.054Z,78.00
2019-04-25T07:59:43.890Z,77.20
2019-04-25T08:02:13.403Z,77.50
2019-04-25T08:04:42.346Z,78.90
2019-04-25T08:07:12.151Z,78.70
2019-04-25T08:09:41.023Z,77.40
2019-04-25T08:12:09.967Z,76.00
2019-04-25T08:14:55.053Z,76.60
2019-04-25T08:17:40.586Z,77.10
2019-04-25T08:20:10.110Z,77.00
2019-04-25T08:22:52.653Z,76.40
2019-04-25T08:25:09.826Z,76.60
2019-04-25T08:27:38.900Z,76.60
2019-04-25T08:30:08.285Z,76.60
2019-04-25T08:32:37.608Z,76.40
2019-04-25T08:35:06.711Z,75.00
2019-04-25T08:37:36.577Z,75.10
2019-04-25T08:40:07.012Z,74.30
2019-04-25T08:42:37.922Z,74.70
2019-04-25T08:45:08.570Z,74.90
2019-04-25T08:47:37.496Z,74.20
2019-04-25T08:50:09.952Z,73.60
2019-04-25T08:52:38.775Z,74.30
2019-04-25T08:55:09.370Z,73.50
2019-04-25T08:57:54.927Z,72.60
2019-04-25T09:00:31.658Z,71.60
2019-04-25T09:03:03.840Z,71.80
2019-04-25T09:05:36.463Z,70.90
2019-04-25T09:08:05.403Z,71.10
2019-04-25T09:10:36.867Z,71.60
2019-04-25T09:13:04.905Z,72.10
2019-04-25T09:15:36.586Z,70.60
2019-04-25T09:18:04.478Z,70.70
2019-04-25T09:20:38.062Z,70.20
2019-04-25T09:23:05.005Z,70.60
2019-04-25T09:25:36.820Z,68.70
2019-04-25T09:28:05.814Z,68.40
2019-04-25T09:30:35.843Z,68.70
2019-04-25T09:33:05.479Z,68.00
2019-04-25T09:35:36.205Z,67.40
2019-04-25T09:38:06.674Z,66.80
2019-04-25T09:40:36.122Z,66.30
2019-04-25T09:43:05.532Z,66.70
2019-04-25T09:45:36.165Z,65.90
2019-04-25T09:48:06.854Z,65.60
2019-04-25T09:50:37.511Z,67.40
2019-04-25T09:53:15.476Z,64.80
2019-04-25T09:55:40.456Z,66.10
2019-04-25T09:58:27.974Z,63.00
2019-04-25T10:01:01.407Z,61.50
2019-04-25T10:03:30.417Z,61.50
2019-04-25T10:05:59.344Z,62.20
2019-04-25T10:08:29.990Z,62.30
2019-04-25T10:11:00.507Z,61.80
2019-04-25T10:13:29.422Z,61.40
2019-04-25T10:16:07.294Z,62.30
2019-04-25T10:18:37.849Z,62.30
2019-04-25T10:21:10.501Z,61.60
2019-04-25T10:23:40.331Z,62.50
2019-04-25T10:26:10.561Z,61.70
2019-04-25T10:28:40.259Z,60.90
2019-04-25T10:31:09.208Z,60.50
2019-04-25T10:33:38.859Z,60.20
2019-04-25T10:36:12.097Z,60.90
2019-04-25T10:38:42.302Z,59.50
2019-04-25T10:41:11.951Z,59.30
2019-04-25T10:43:41.776Z,59.00
2019-04-25T10:46:11.040Z,58.40
2019-04-25T10:48:40.247Z,58.40
2019-04-25T10:51:09.235Z,58.60
2019-04-25T10:53:38.143Z,58.40
2019-04-25T10:56:07.722Z,58.10
2019-04-25T10:58:36.574Z,58.20
2019-04-25T11:01:06.396Z,58.90
2019-04-25T11:03:55.744Z,57.70
2019-04-25T11:06:27.879Z,57.80
2019-04-25T11:08:56.786Z,57.00
2019-04-25T11:11:26.067Z,57.30
2019-04-25T11:13:57.635Z,57.40
2019-04-25T11:16:26.710Z,57.80
2019-04-25T11:18:55.822Z,57.40
2019-04-25T11:21:24.645Z,55.90
2019-04-25T11:23:55.000Z,56.10
2019-04-25T11:26:24.643Z,57.10
2019-04-25T11:28:54.407Z,56.60
2019-04-25T11:31:25.110Z,57.60
2019-04-25T11:33:54.475Z,57.00
2019-04-25T11:36:25.001Z,56.70
2019-04-25T11:38:55.624Z,57.70
2019-04-25T11:41:25.359Z,59.20
2019-04-25T11:43:55.236Z,58.10
2019-04-25T11:46:24.606Z,57.80
2019-04-25T11:48:54.822Z,57.70
2019-04-25T11:51:24.166Z,59.00
2019-04-25T11:53:55.569Z,59.30
2019-04-25T11:56:26.604Z,59.80
2019-04-25T11:58:57.114Z,59.30
2019-04-25T12:01:26.871Z,58.80
2019-04-25T12:03:56.152Z,59.10
2019-04-25T12:06:25.090Z,59.80
2019-04-25T12:08:55.310Z,60.30
2019-04-25T12:11:25.137Z,60.70
2019-04-25T12:13:55.249Z,60.10
2019-04-25T12:16:24.766Z,60.30
2019-04-25T12:18:56.044Z,60.70
2019-04-25T12:21:24.235Z,59.70
2019-04-25T12:23:55.234Z,60.70
2019-04-25T12:26:24.314Z,61.40
2019-04-25T12:28:56.439Z,61.10
2019-04-25T12:31:24.776Z,62.30
2019-04-25T12:33:55.202Z,61.80
2019-04-25T12:36:24.080Z,61.90
2019-04-25T12:38:55.491Z,61.70
2019-04-25T12:41:24.529Z,62.20
2019-04-25T12:43:55.459Z,62.20
2019-04-25T12:46:29.622Z,64.30
2019-04-25T12:48:59.950Z,64.90
2019-04-25T12:51:28.898Z,66.40
2019-04-25T12:53:58.035Z,64.00
2019-04-25T12:56:27.031Z,65.10
2019-04-25T12:58:56.021Z,65.30
2019-04-25T13:01:24.990Z,65.70
2019-04-25T13:03:54.400Z,63.40
2019-04-25T13:06:24.300Z,64.80
2019-04-25T13:08:54.255Z,64.80
2019-04-25T13:11:23.945Z,65.90
2019-04-25T13:13:53.028Z,64.30
2019-04-25T13:16:21.912Z,65.10
2019-04-25T13:18:51.127Z,64.50
2019-04-25T13:21:20.045Z,65.50
2019-04-25T13:23:49.027Z,65.10
2019-04-25T13:26:19.482Z,65.80
2019-04-25T13:29:09.420Z,67.40
2019-04-25T13:31:56.718Z,66.70
2019-04-25T13:34:36.287Z,67.50
2019-04-25T13:37:01.230Z,65.60
2019-04-25T13:39:30.746Z,68.50
2019-04-25T13:42:02.068Z,68.10
2019-04-25T13:44:30.569Z,67.30
2019-04-25T13:46:59.429Z,67.50
2019-04-25T13:49:29.277Z,70.00
2019-04-25T13:51:58.134Z,69.30
2019-04-25T13:54:27.090Z,72.10
2019-04-25T13:56:55.983Z,73.00
2019-04-25T13:59:25.665Z,74.70
2019-04-25T14:01:57.632Z,72.80
2019-04-25T14:04:26.993Z,74.20
2019-04-25T14:06:56.823Z,74.80
2019-04-25T14:09:25.980Z,72.60
2019-04-25T14:11:55.901Z,72.20
2019-04-25T14:14:24.926Z,74.40
2019-04-25T14:17:14.402Z,74.00
2019-04-25T14:19:47.432Z,77.50
2019-04-25T14:22:16.297Z,78.20
2019-04-25T14:24:45.245Z,80.50
2019-04-25T14:27:14.355Z,81.10
2019-04-25T14:29:43.910Z,78.80
2019-04-25T14:32:15.490Z,80.30
2019-04-25T14:34:44.403Z,82.00
2019-04-25T14:37:13.271Z,81.10
2019-04-25T14:39:42.105Z,82.50
2019-04-25T14:42:10.972Z,82.80
2019-04-25T14:44:39.884Z,81.70
2019-04-25T14:47:08.705Z,80.70
2019-04-25T14:49:37.848Z,81.80
2019-04-25T14:52:06.667Z,79.30
2019-04-25T14:54:42.975Z,81.60
2019-04-25T14:57:13.495Z,80.40
2019-04-25T14:59:42.333Z,78.70
2019-04-25T15:02:11.388Z,79.90
2019-04-25T15:04:40.202Z,81.00
2019-04-25T15:07:09.136Z,80.30
2019-04-25T15:09:38.013Z,82.50
2019-04-25T15:12:07.095Z,82.30
2019-04-25T15:14:35.959Z,83.20
2019-04-25T15:17:05.190Z,84.90
2019-04-25T15:19:34.106Z,83.40
2019-04-25T15:22:02.977Z,82.90
2019-04-25T15:24:32.384Z,82.50
2019-04-25T15:27:01.391Z,82.30
2019-04-25T15:29:31.874Z,74.60
2019-04-25T15:32:00.790Z,76.50
2019-04-25T15:34:31.317Z,74.40
2019-04-25T15:37:01.841Z,75.30
2019-04-25T15:39:43.885Z,77.40
2019-04-25T15:42:17.223Z,76.20
2019-04-25T15:44:53.586Z,77.20
2019-04-25T15:47:24.061Z,79.10
2019-04-25T15:49:52.977Z,79.20
2019-04-25T15:52:21.836Z,79.00
2019-04-25T15:54:50.639Z,79.80
2019-04-25T15:57:19.515Z,79.30
2019-04-25T15:59:48.250Z,80.20
2019-04-25T16:02:17.954Z,79.80
2019-04-25T16:04:46.712Z,80.70
2019-04-25T16:07:15.774Z,79.40
2019-04-25T16:09:44.591Z,81.20
2019-04-25T16:12:13.618Z,81.40
2019-04-25T16:14:42.555Z,81.40
2019-04-25T16:17:11.539Z,81.10
2019-04-25T16:19:41.183Z,80.90
2019-04-25T16:22:10.130Z,80.60
2019-04-25T16:24:38.980Z,82.00
2019-04-25T16:27:09.288Z,81.30
2019-04-25T16:29:38.401Z,81.10
2019-04-25T16:32:19.933Z,80.30
2019-04-25T16:34:40.936Z,81.70
2019-04-25T16:37:09.880Z,82.30
2019-04-25T16:39:40.490Z,81.90
2019-04-25T16:42:09.492Z,82.80
2019-04-25T16:44:38.264Z,83.70
2019-04-25T16:47:08.754Z,86.30
2019-04-25T16:49:37.725Z,88.90
2019-04-25T16:52:08.191Z,87.50
2019-04-25T16:54:38.025Z,86.50
2019-04-25T16:57:06.973Z,85.60
2019-04-25T16:59:35.841Z,84.50
2019-04-25T17:02:04.838Z,84.40
2019-04-25T17:04:33.739Z,83.80
2019-04-25T17:07:02.583Z,84.00
2019-04-25T17:09:31.864Z,82.90
2019-04-25T17:12:00.715Z,82.90
2019-04-25T17:14:33.718Z,81.80
2019-04-25T17:17:20.030Z,82.70
2019-04-25T17:20:06.674Z,85.00
2019-04-25T17:22:35.701Z,83.80
2019-04-25T17:25:05.909Z,85.40
2019-04-25T17:27:37.039Z,83.50
2019-04-25T17:30:07.666Z,83.70
2019-04-25T17:32:54.514Z,84.40
2019-04-25T17:35:36.810Z,86.70
2019-04-25T17:38:16.014Z,87.30
2019-04-25T17:40:44.920Z,86.90
2019-04-25T17:43:14.957Z,88.90
2019-04-25T17:45:43.903Z,88.50
2019-04-25T17:48:13.359Z,89.60
2019-04-25T17:50:43.855Z,90.00
2019-04-25T17:53:12.914Z,90.00
2019-04-25T17:55:41.827Z,90.40
2019-04-25T17:58:10.676Z,90.50
2019-04-25T18:00:41.989Z,90.10
2019-04-25T18:03:11.459Z,90.00
2019-04-25T18:05:40.269Z,90.30
2019-04-25T18:08:09.167Z,90.40
2019-04-25T18:10:38.158Z,89.50
2019-04-25T18:13:09.474Z,90.00
2019-04-25T18:15:42.089Z,90.30
2019-04-25T18:18:12.601Z,90.50
2019-04-25T18:20:43.082Z,90.30
2019-04-25T18:23:19.424Z,90.10
2019-04-25T18:26:01.788Z,89.60
2019-04-25T18:28:32.235Z,90.00
2019-04-25T18:31:01.183Z,89.30
2019-04-25T18:33:30.129Z,90.10
2019-04-25T18:36:09.444Z,90.00
2019-04-25T18:38:45.968Z,90.60
2019-04-25T18:41:24.015Z,90.00
2019-04-25T18:43:54.492Z,90.30
2019-04-25T18:46:27.637Z,90.10
2019-04-25T18:48:56.740Z,90.10
2019-04-25T18:51:25.579Z,89.20
2019-04-25T18:54:07.643Z,90.40
2019-04-25T18:56:38.905Z,89.40
2019-04-25T18:59:09.483Z,90.00
2019-04-25T19:01:41.677Z,90.20
2019-04-25T19:04:21.158Z,89.90
2019-04-25T19:06:57.567Z,90.00
2019-04-25T19:09:20.579Z,90.50
2019-04-25T19:11:49.495Z,89.60
2019-04-25T19:14:18.426Z,90.10
2019-04-25T19:16:47.638Z,90.20
2019-04-25T19:19:16.558Z,90.30
2019-04-25T19:21:45.516Z,90.50
2019-04-25T19:24:14.465Z,90.50
2019-04-25T19:26:43.644Z,90.80
2019-04-25T19:29:13.453Z,90.40
2019-04-25T19:31:42.378Z,90.50
2019-04-25T19:34:11.207Z,90.10
2019-04-25T19:36:40.554Z,90.20
2019-04-25T19:39:10.260Z,91.30
2019-04-25T19:41:47.171Z,91.30
2019-04-25T19:44:17.656Z,91.30
2019-04-25T19:46:49.201Z,91.20
2019-04-25T19:49:18.177Z,90.80
2019-04-25T19:51:47.269Z,90.10
2019-04-25T19:54:16.191Z,85.70
2019-04-25T19:56:45.378Z,84.20
2019-04-25T19:59:14.170Z,84.90
2019-04-25T20:01:44.041Z,84.10
2019-04-25T20:04:20.044Z,85.50
2019-04-25T20:07:06.744Z,88.10
2019-04-25T20:09:53.154Z,88.10
2019-04-25T20:12:23.782Z,87.00
2019-04-25T20:14:53.513Z,87.20
2019-04-25T20:17:22.461Z,85.80
2019-04-25T20:19:51.879Z,86.80
2019-04-25T20:22:22.121Z,84.60
2019-04-25T20:24:50.928Z,85.10
2019-04-25T20:27:19.823Z,85.00
2019-04-25T20:29:48.658Z,83.90
2019-04-25T20:32:17.442Z,85.20
2019-04-25T20:34:47.044Z,86.10
2019-04-25T20:37:16.034Z,86.00
2019-04-25T20:39:45.883Z,87.70
2019-04-25T20:42:14.928Z,88.40
2019-04-25T20:44:43.761Z,89.60
2019-04-25T20:47:12.825Z,90.20
2019-04-25T20:49:41.681Z,90.50
2019-04-25T20:52:10.596Z,90.40
2019-04-25T20:54:39.422Z,90.30
2019-04-25T20:57:08.327Z,90.60
2019-04-25T20:59:37.172Z,90.80
2019-04-25T21:02:08.447Z,90.60
2019-04-25T21:04:41.301Z,90.70
2019-04-25T21:07:10.370Z,91.60
2019-04-25T21:09:39.502Z,91.70
2019-04-25T21:12:09.205Z,92.10
2019-04-25T21:14:42.240Z,91.90
2019-04-25T21:17:12.706Z,92.00
2019-04-25T21:19:43.169Z,91.80
2019-04-25T21:22:11.939Z,91.80
2019-04-25T21:24:40.886Z,91.30
2019-04-25T21:27:09.636Z,91.30
2019-04-25T21:29:38.641Z,91.70
2019-04-25T21:32:07.716Z,91.60
2019-04-25T21:34:36.558Z,91.70
2019-04-25T21:37:05.819Z,91.70
2019-04-25T21:39:36.590Z,92.20
2019-04-25T21:42:22.090Z,92.40
2019-04-25T21:44:51.801Z,92.30
2019-04-25T21:47:21.604Z,92.00
2019-04-25T21:49:50.742Z,92.20
2019-04-25T21:52:19.774Z,92.50
2019-04-25T21:54:48.809Z,92.70
2019-04-25T21:57:17.917Z,93.00
2019-04-25T21:59:58.811Z,93.00
2019-04-25T22:02:18.261Z,92.50
2019-04-25T22:04:47.433Z,92.50
2019-04-25T22:07:16.638Z,92.60
2019-04-25T22:09:45.870Z,92.20
2019-04-25T22:12:15.312Z,91.70
2019-04-25T22:14:44.131Z,91.50
2019-04-25T22:17:13.034Z,91.20
2019-04-25T22:19:42.190Z,91.90
2019-04-25T22:22:11.430Z,92.20
2019-04-25T22:24:40.246Z,92.20
2019-04-25T22:27:10.648Z,92.30
2019-04-25T22:29:41.149Z,92.40
2019-04-25T22:32:20.139Z,92.60
2019-04-25T22:35:09.015Z,93.20
2019-04-25T22:37:37.818Z,93.40
2019-04-25T22:40:07.485Z,93.30
2019-04-25T22:42:36.371Z,93.50
2019-04-25T22:45:06.571Z,92.90
2019-04-25T22:47:35.322Z,92.70
2019-04-25T22:50:05.090Z,91.60
2019-04-25T22:52:34.226Z,91.60
2019-04-25T22:55:04.217Z,91.30
2019-04-25T22:57:33.463Z,91.50
2019-04-25T23:00:03.231Z,91.10
2019-04-25T23:02:36.745Z,90.60
2019-04-25T23:05:15.881Z,91.00
2019-04-25T23:07:44.212Z,91.40
2019-04-25T23:10:13.409Z,91.60
2019-04-25T23:12:42.234Z,90.10
2019-04-25T23:15:11.317Z,90.40
2019-04-25T23:17:40.068Z,91.40
2019-04-25T23:20:09.686Z,91.60
2019-04-25T23:22:38.606Z,91.30
2019-04-25T23:25:09.927Z,91.00
2019-04-25T23:27:43.269Z,91.00
2019-04-25T23:30:14.499Z,91.40
2019-04-25T23:32:43.316Z,91.00
2019-04-25T23:35:23.502Z,90.30
2019-04-25T23:37:42.677Z,90.00
2019-04-25T23:40:11.667Z,90.20
2019-04-25T23:42:40.643Z,90.60
2019-04-25T23:45:10.327Z,90.30
2019-04-25T23:47:39.194Z,90.50
2019-04-25T23:50:08.790Z,88.90
2019-04-25T23:52:37.959Z,88.00
2019-04-25T23:55:08.105Z,87.50
2019-04-25T23:57:37.282Z,86.20
